Time;durP1;ratioP1;P1;durP2;ratioP2;P2;SDS_P1;SDS_P2;PMS_P1;PMS_P2;Temp;Humidity;BMP_temperature;BMP_pressure;BME280_temperature;BME280_humidity;BME280_pressure;Samples;Min_cycle;Max_cycle;Signal;HPM_P1;HPM_P2
2022/05/22 00:01:40;;;;;;;2.08;1.42;;;24.10;43.30;;;;;;6286372;27;80532;-76
2022/05/22 00:04:41;;;;;;;5.25;1.65;;;24.10;43.20;;;;;;6285795;27;80602;-75
2022/05/22 00:07:41;;;;;;;2.55;1.60;;;24.10;43.30;;;;;;6285952;27;81887;-77
2022/05/22 00:10:42;;;;;;;2.03;1.60;;;24.10;43.40;;;;;;6285241;27;80663;-76
2022/05/22 00:13:42;;;;;;;2.47;1.20;;;24.10;43.40;;;;;;6284578;27;81701;-76
2022/05/22 00:16:46;;;;;;;2.72;1.30;;;24.10;43.40;;;;;;6286088;27;79997;-76
2022/05/22 00:19:51;;;;;;;2.03;1.42;;;24.10;43.40;;;;;;6279432;27;80155;-75
2022/05/22 00:22:51;;;;;;;1.88;1.58;;;24.10;43.50;;;;;;6285794;27;80357;-75
2022/05/22 00:25:52;;;;;;;6.07;2.00;;;24.10;43.50;;;;;;6286244;27;81552;-77
2022/05/22 00:28:52;;;;;;;3.58;1.45;;;24.10;43.50;;;;;;6284710;27;80412;-77
2022/05/22 00:31:53;;;;;;;2.35;1.35;;;24.10;43.50;;;;;;6284006;27;82166;-76
2022/05/22 00:34:53;;;;;;;5.82;1.80;;;24.10;43.50;;;;;;6276815;27;81122;-76
2022/05/22 00:37:55;;;;;;;3.55;1.73;;;24.10;43.50;;;;;;6280990;27;83337;-76
2022/05/22 00:40:55;;;;;;;3.20;2.38;;;24.10;43.50;;;;;;6284951;27;80527;-76
2022/05/22 00:43:56;;;;;;;2.97;1.17;;;24.10;43.50;;;;;;6283050;27;81657;-76
2022/05/22 00:46:56;;;;;;;4.15;1.98;;;24.00;44.10;;;;;;6277039;27;81624;-77
2022/05/22 00:50:00;;;;;;;3.55;1.42;;;24.00;43.40;;;;;;6283328;27;80391;-77
2022/05/22 00:53:00;;;;;;;5.53;1.65;;;24.10;43.50;;;;;;6284683;27;80955;-75
2022/05/22 00:56:01;;;;;;;2.72;1.42;;;24.10;43.50;;;;;;6282123;27;83463;-78
2022/05/22 00:59:02;;;;;;;2.88;1.88;;;24.00;43.50;;;;;;6261861;27;83300;-77
2022/05/22 01:02:02;;;;;;;3.97;2.25;;;24.00;43.50;;;;;;6275271;27;80746;-78
2022/05/22 01:05:06;;;;;;;4.28;1.52;;;24.00;43.50;;;;;;6282531;27;81364;-77
2022/05/22 01:08:06;;;;;;;3.08;1.50;;;24.00;43.50;;;;;;6284386;27;82158;-77
2022/05/22 01:11:07;;;;;;;3.55;1.75;;;24.00;43.50;;;;;;6285083;27;87515;-78
2022/05/22 01:14:07;;;;;;;3.00;1.52;;;24.00;43.60;;;;;;6283598;27;83702;-77
2022/05/22 01:17:08;;;;;;;2.83;1.83;;;24.00;43.60;;;;;;6284342;27;80960;-77
2022/05/22 01:20:11;;;;;;;1.67;1.25;;;24.00;43.60;;;;;;6284809;27;81513;-77
2022/05/22 01:23:12;;;;;;;1.70;1.40;;;24.00;43.70;;;;;;6299663;27;82109;-78
2022/05/22 01:26:13;;;;;;;2.13;1.40;;;24.00;43.70;;;;;;6308710;27;79894;-77
2022/05/22 01:29:13;;;;;;;5.03;1.67;;;24.00;43.80;;;;;;6304626;27;82254;-77
2022/05/22 01:32:14;;;;;;;2.05;1.50;;;24.00;43.80;;;;;;6285395;27;81806;-78
2022/05/22 01:35:17;;;;;;;2.90;1.60;;;24.00;43.90;;;;;;6278784;27;83381;-78
2022/05/22 01:38:17;;;;;;;2.03;1.27;;;24.00;44.00;;;;;;6286382;27;81566;-78
2022/05/22 01:41:20;;;;;;;2.70;1.17;;;24.00;44.10;;;;;;6284532;27;81548;-77
2022/05/22 01:44:21;;;;;;;3.83;1.60;;;24.00;44.10;;;;;;6256749;28;83367;-75
2022/05/22 01:47:22;;;;;;;2.53;1.20;;;23.90;44.00;;;;;;6268587;27;82679;-76
2022/05/22 01:50:23;;;;;;;5.10;1.77;;;24.00;44.20;;;;;;6284360;27;81584;-78
2022/05/22 01:53:24;;;;;;;2.40;1.70;;;24.00;44.20;;;;;;6282227;27;82630;-76
2022/05/22 01:56:25;;;;;;;2.05;1.08;;;24.00;44.30;;;;;;6282587;27;80292;-77
2022/05/22 01:59:26;;;;;;;2.92;1.50;;;24.00;44.30;;;;;;6282373;27;83232;-76
2022/05/22 02:02:40;;;;;;;4.10;1.90;;;23.90;44.20;;;;;;6282026;27;82354;-76
2022/05/22 02:05:43;;;;;;;1.85;1.30;;;23.90;44.30;;;;;;6282157;27;83173;-77
2022/05/22 02:08:44;;;;;;;1.40;1.30;;;24.00;44.30;;;;;;6283837;27;80340;-76
2022/05/22 02:11:44;;;;;;;1.55;1.30;;;23.90;44.30;;;;;;6282441;27;83289;-75
2022/05/22 02:14:49;;;;;;;3.28;1.20;;;23.90;44.30;;;;;;6282107;27;82981;-75
2022/05/22 02:17:51;;;;;;;1.20;1.10;;;23.90;44.30;;;;;;6281926;27;82922;-74
2022/05/22 02:20:52;;;;;;;1.48;1.38;;;23.90;44.40;;;;;;6282057;27;82262;-74
2022/05/22 02:23:52;;;;;;;2.78;1.63;;;23.90;44.40;;;;;;6282576;27;82241;-74
2022/05/22 02:26:53;;;;;;;1.75;1.25;;;23.90;44.50;;;;;;6279433;27;83382;-77
2022/05/22 02:29:54;;;;;;;1.40;1.20;;;23.90;44.50;;;;;;6279570;27;83232;-75
2022/05/22 02:32:54;;;;;;;1.98;1.73;;;23.90;44.50;;;;;;6277500;27;80398;-74
2022/05/22 02:35:56;;;;;;;1.83;1.50;;;23.80;44.60;;;;;;6281966;27;82770;-75
2022/05/22 02:39:03;;;;;;;3.42;1.52;;;23.80;44.60;;;;;;6279126;27;81608;-74
2022/05/22 02:42:05;;;;;;;2.42;1.52;;;23.80;44.70;;;;;;6282016;27;81716;-74
2022/05/22 02:45:06;;;;;;;2.28;1.80;;;23.80;44.70;;;;;;6279140;27;84968;-75
2022/05/22 02:48:07;;;;;;;3.85;1.60;;;23.80;44.70;;;;;;6281680;27;81768;-75
2022/05/22 02:51:07;;;;;;;2.78;1.75;;;23.80;44.70;;;;;;6281205;27;82644;-74
2022/05/22 02:54:09;;;;;;;4.93;2.03;;;23.80;44.70;;;;;;6278440;27;80429;-74
2022/05/22 02:57:30;;;;;;;7.85;1.50;;;23.80;44.80;;;;;;6282744;27;81065;-74
2022/05/22 03:00:35;;;;;;;1.70;1.20;;;23.80;44.90;;;;;;6281302;27;83340;-72
2022/05/22 03:03:35;;;;;;;7.28;1.50;;;23.70;44.90;;;;;;6282175;27;80330;-74
2022/05/22 03:06:39;;;;;;;3.00;1.63;;;23.80;45.00;;;;;;6281251;27;83271;-73
2022/05/22 03:09:41;;;;;;;5.32;2.00;;;23.80;45.00;;;;;;6281371;27;83442;-73
2022/05/22 03:12:41;;;;;;;3.17;1.55;;;23.80;45.00;;;;;;6280944;27;81684;-73
2022/05/22 03:15:42;;;;;;;2.83;1.95;;;23.70;45.00;;;;;;6281322;27;81238;-74
2022/05/22 03:18:43;;;;;;;2.63;2.00;;;23.70;45.10;;;;;;6294881;27;87747;-70
2022/05/22 03:21:52;;;;;;;4.07;2.00;;;23.80;45.20;;;;;;6286226;27;83006;-72
2022/05/22 03:24:53;;;;;;;3.78;1.60;;;23.80;45.20;;;;;;6287723;27;83082;-72
2022/05/22 03:27:53;;;;;;;4.72;1.65;;;23.70;45.20;;;;;;6283797;27;83828;-72
2022/05/22 03:30:54;;;;;;;2.88;1.60;;;23.80;45.20;;;;;;6277283;27;83146;-73
2022/05/22 03:33:55;;;;;;;1.95;1.52;;;23.70;45.20;;;;;;6279513;27;83504;-73
2022/05/22 03:36:56;;;;;;;4.65;1.88;;;23.70;45.20;;;;;;6277843;27;81765;-73
2022/05/22 03:39:56;;;;;;;2.75;1.63;;;23.70;45.30;;;;;;6286203;27;80546;-74
2022/05/22 03:42:57;;;;;;;2.72;1.60;;;23.70;45.30;;;;;;6286594;27;80791;-73
2022/05/22 03:45:58;;;;;;;1.63;1.48;;;23.70;45.40;;;;;;6284828;27;82312;-73
2022/05/22 03:48:58;;;;;;;4.82;2.10;;;23.70;45.40;;;;;;6285101;27;81930;-73
2022/05/22 03:52:05;;;;;;;2.10;1.52;;;23.70;45.40;;;;;;6277341;27;82643;-74
2022/05/22 03:55:06;;;;;;;4.25;2.10;;;23.70;45.40;;;;;;6284445;27;83129;-74
2022/05/22 03:58:07;;;;;;;2.08;1.58;;;23.80;45.50;;;;;;6284312;27;82265;-74
2022/05/22 04:01:07;;;;;;;7.00;1.98;;;23.70;45.50;;;;;;6275662;27;82182;-73
2022/05/22 04:04:15;;;;;;;3.30;1.95;;;23.70;45.50;;;;;;6260151;27;80368;-73
2022/05/22 04:07:16;;;;;;;2.50;1.67;;;23.70;45.50;;;;;;6284821;27;82730;-72
2022/05/22 04:10:17;;;;;;;4.53;1.83;;;23.80;45.60;;;;;;6281060;27;81963;-72
2022/05/22 04:13:17;;;;;;;2.75;1.95;;;23.70;45.60;;;;;;6277838;27;80350;-75
2022/05/22 04:16:18;;;;;;;2.38;1.67;;;23.80;45.70;;;;;;6284281;27;83219;-73
2022/05/22 04:19:19;;;;;;;1.80;1.50;;;23.80;45.60;;;;;;6274099;27;83301;-72
2022/05/22 04:22:20;;;;;;;3.15;1.73;;;23.80;45.80;;;;;;6264782;27;82709;-73
2022/05/22 04:25:21;;;;;;;2.17;1.67;;;23.70;45.60;;;;;;6269118;27;82927;-72
2022/05/22 04:28:22;;;;;;;5.10;1.90;;;23.70;45.80;;;;;;6263788;27;81788;-73
2022/05/22 04:31:31;;;;;;;6.80;1.75;;;23.80;45.80;;;;;;6265577;27;80892;-75
2022/05/22 04:34:55;;;;;;;4.13;1.83;;;23.70;45.80;;;;;;6269102;27;81547;-74
2022/05/22 04:37:56;;;;;;;6.13;1.98;;;23.80;45.90;;;;;;6267789;27;82975;-76
2022/05/22 04:40:57;;;;;;;2.70;1.83;;;23.70;45.90;;;;;;6265662;27;82499;-74
2022/05/22 04:43:57;;;;;;;3.17;1.90;;;23.80;46.00;;;;;;6267915;27;80481;-74
2022/05/22 04:46:58;;;;;;;7.78;2.25;;;23.70;46.00;;;;;;6262471;27;81117;-73
2022/05/22 04:49:58;;;;;;;2.60;1.88;;;23.80;46.10;;;;;;6281551;27;82145;-68
2022/05/22 04:52:59;;;;;;;4.88;1.98;;;23.80;45.90;;;;;;6284204;27;82312;-67
2022/05/22 04:56:00;;;;;;;2.28;1.90;;;23.80;45.80;;;;;;6285772;27;80355;-70
2022/05/22 04:59:04;;;;;;;7.55;2.10;;;23.80;46.30;;;;;;6258393;27;83903;-68
2022/05/22 05:02:06;;;;;;;4.65;2.20;;;23.90;46.80;;;;;;6274974;27;82977;-70
2022/05/22 05:05:18;;;;;;;3.90;2.53;;;23.90;46.70;;;;;;6285227;27;80589;-71
2022/05/22 05:08:19;;;;;;;5.72;2.10;;;23.90;46.90;;;;;;6284703;27;83298;-69
2022/05/22 05:11:26;;;;;;;10.82;2.60;;;23.80;47.70;;;;;;6266763;27;82790;-72
2022/05/22 05:14:47;;;;;;;4.85;2.40;;;23.70;47.70;;;;;;6285324;27;81021;-70
2022/05/22 05:17:48;;;;;;;9.15;2.95;;;23.70;47.50;;;;;;6275525;27;83192;-70
2022/05/22 05:20:51;;;;;;;5.57;3.13;;;23.70;47.50;;;;;;6278834;27;82553;-69
2022/05/22 05:23:55;;;;;;;8.80;2.85;;;23.60;47.10;;;;;;6280869;27;82632;-70
2022/05/22 05:26:57;;;;;;;6.28;2.85;;;23.60;47.40;;;;;;6264608;27;82595;-68
2022/05/22 05:29:58;;;;;;;7.97;3.25;;;23.60;47.40;;;;;;6272638;27;83414;-69
2022/05/22 05:32:59;;;;;;;4.18;2.35;;;23.60;47.20;;;;;;6262845;27;82276;-68
2022/05/22 05:36:29;;;;;;;5.63;2.83;;;23.60;46.90;;;;;;6237134;27;80541;-69
2022/05/22 05:39:48;;;;;;;8.88;2.97;;;23.70;46.80;;;;;;6261760;27;83306;-67
2022/05/22 05:43:00;;;;;;;7.15;2.58;;;23.70;46.90;;;;;;6268552;27;83050;-68
2022/05/22 05:46:00;;;;;;;7.60;2.53;;;23.70;46.70;;;;;;6261577;27;81723;-68
2022/05/22 05:49:01;;;;;;;10.80;2.35;;;23.80;46.80;;;;;;6272909;27;83179;-68
2022/05/22 05:52:01;;;;;;;12.57;2.35;;;23.80;46.70;;;;;;6261414;27;83272;-68
2022/05/22 05:55:02;;;;;;;6.20;2.83;;;23.80;46.60;;;;;;6261518;27;83669;-68
2022/05/22 05:58:21;;;;;;;6.22;3.08;;;23.70;46.60;;;;;;6269341;27;80391;-65
2022/05/22 06:01:29;;;;;;;5.80;2.80;;;23.80;46.70;;;;;;6272444;27;82264;-69
2022/05/22 06:04:30;;;;;;;9.77;3.45;;;23.80;46.50;;;;;;6281276;27;80648;-69
2022/05/22 06:07:31;;;;;;;7.55;3.10;;;23.80;46.60;;;;;;6274818;27;80445;-69
2022/05/22 06:10:31;;;;;;;8.20;3.13;;;23.80;46.50;;;;;;6271009;27;83617;-69
2022/05/22 06:13:53;;;;;;;8.23;3.15;;;23.80;46.40;;;;;;6267721;27;83462;-68
2022/05/22 06:16:53;;;;;;;6.20;3.13;;;23.80;46.30;;;;;;6274468;27;83288;-68
2022/05/22 06:19:55;;;;;;;5.78;3.33;;;23.90;46.40;;;;;;6281837;27;83165;-70
2022/05/22 06:22:58;;;;;;;5.75;3.35;;;23.90;46.50;;;;;;6281440;27;82728;-69
2022/05/22 06:26:28;;;;;;;6.47;3.50;;;23.90;46.30;;;;;;6267766;27;80577;-70
2022/05/22 06:29:49;;;;;;;8.25;4.47;;;23.90;46.60;;;;;;6268806;27;80738;-70
2022/05/22 06:33:16;;;;;;;8.52;3.97;;;24.00;46.30;;;;;;6259161;27;80446;-72
2022/05/22 06:36:43;;;;;;;8.07;3.50;;;24.00;46.70;;;;;;6272186;27;80795;-72
2022/05/22 06:39:52;;;;;;;6.40;3.72;;;24.00;46.30;;;;;;6263620;27;86339;-69
2022/05/22 06:43:01;;;;;;;3.33;2.38;;;24.00;46.20;;;;;;6278701;27;80921;-69
2022/05/22 06:46:05;;;;;;;5.53;3.10;;;23.90;46.40;;;;;;6273300;27;80401;-69
2022/05/22 06:49:24;;;;;;;6.43;2.65;;;23.90;46.20;;;;;;6283065;27;80480;-70
2022/05/22 06:52:57;;;;;;;9.65;3.17;;;23.90;46.00;;;;;;6274230;27;80241;-70
2022/05/22 06:56:04;;;;;;;7.10;2.35;;;24.00;45.70;;;;;;6281318;27;83133;-68
2022/05/22 06:59:08;;;;;;;4.60;2.00;;;24.00;45.70;;;;;;6278689;27;80299;-75
2022/05/22 07:02:29;;;;;;;5.30;1.83;;;24.00;45.90;;;;;;6259745;27;80510;-70
2022/05/22 07:05:45;;;;;;;5.78;2.40;;;24.10;45.60;;;;;;6252814;27;83192;-68
2022/05/22 07:09:11;;;;;;;9.98;1.95;;;24.10;45.70;;;;;;6264250;27;80448;-67
2022/05/22 07:12:32;;;;;;;7.00;2.40;;;24.00;45.40;;;;;;6274446;27;83461;-67
2022/05/22 07:15:46;;;;;;;8.00;1.80;;;24.10;45.50;;;;;;6271182;27;87961;-70
2022/05/22 07:19:00;;;;;;;5.20;2.10;;;24.20;45.30;;;;;;6275088;27;83042;-69
2022/05/22 07:22:24;;;;;;;4.57;1.75;;;24.10;45.10;;;;;;6281064;27;80892;-65
2022/05/22 07:25:57;;;;;;;6.72;2.33;;;24.10;44.90;;;;;;6260543;27;80353;-66
2022/05/22 07:29:33;;;;;;;3.08;1.67;;;24.10;44.50;;;;;;6241902;28;80697;-68
2022/05/22 07:32:51;;;;;;;7.13;2.55;;;24.10;44.80;;;;;;6264461;27;83075;-70
2022/05/22 07:36:11;;;;;;;8.70;2.75;;;24.10;44.90;;;;;;6273950;27;80522;-68
2022/05/22 07:39:40;;;;;;;11.23;2.15;;;24.10;44.80;;;;;;6268229;27;80220;-69
2022/05/22 07:42:54;;;;;;;3.20;1.80;;;24.10;44.90;;;;;;6256489;27;87583;-68
2022/05/22 07:46:32;;;;;;;8.98;2.53;;;24.20;45.00;;;;;;6262575;27;80852;-69
2022/05/22 07:53:36;;;;;;;5.55;1.73;;;24.30;45.10;;;;;;6277737;27;83304;-69
2022/05/22 07:56:48;;;;;;;3.97;1.88;;;24.40;45.00;;;;;;6279895;27;83042;-70
2022/05/22 08:00:15;;;;;;;;;;;24.40;44.80;;;;;;6263388;27;80381;-68
2022/05/22 08:03:15;;;;;;;75.38;8.50;;;24.30;44.00;;;;;;6277298;27;80072;-70
2022/05/22 08:06:25;;;;;;;16.92;3.25;;;24.30;43.70;;;;;;6285249;27;80368;-64
2022/05/22 08:09:27;;;;;;;7.25;1.95;;;24.30;44.00;;;;;;6283798;27;83489;-69
2022/05/22 08:12:28;;;;;;;8.23;2.45;;;24.30;43.40;;;;;;6283416;27;80763;-67
2022/05/22 08:15:42;;;;;;;7.85;2.00;;;24.30;43.70;;;;;;6275779;27;82016;-66
2022/05/22 08:19:06;;;;;;;17.27;6.00;;;24.30;43.50;;;;;;6264666;27;85953;-68
2022/05/22 08:22:07;;;;;;;73.18;30.30;;;24.40;43.60;;;;;;6262373;27;81623;-68
2022/05/22 08:25:28;;;;;;;52.15;24.20;;;24.40;43.70;;;;;;6263480;27;83233;-66
2022/05/22 08:28:29;;;;;;;93.80;39.65;;;24.40;43.10;;;;;;6262814;27;84116;-67
2022/05/22 08:31:30;;;;;;;91.38;38.20;;;24.30;43.10;;;;;;6269454;27;84989;-67
2022/05/22 08:34:30;;;;;;;142.27;58.10;;;24.40;43.20;;;;;;6276171;27;85946;-66
2022/05/22 08:37:31;;;;;;;83.55;35.83;;;24.30;42.80;;;;;;6280730;27;83106;-65
2022/05/22 08:40:31;;;;;;;96.75;36.30;;;24.30;42.50;;;;;;6282197;27;83125;-66
2022/05/22 08:43:32;;;;;;;66.07;26.75;;;24.30;42.70;;;;;;6279678;27;84303;-67
2022/05/22 08:46:33;;;;;;;44.53;18.58;;;24.40;42.90;;;;;;6281603;27;83962;-65
2022/05/22 08:49:33;;;;;;;36.50;15.25;;;24.40;42.80;;;;;;6269359;27;83508;-68
2022/05/22 08:52:34;;;;;;;23.45;11.65;;;24.40;42.50;;;;;;6275332;27;83146;-68
2022/05/22 08:58:57;;;;;;;22.08;9.05;;;24.50;41.90;;;;;;6281237;27;85452;-67
2022/05/22 09:01:58;;;;;;;17.08;6.97;;;24.60;42.40;;;;;;6285272;27;82873;-67
2022/05/22 09:04:59;;;;;;;15.38;7.20;;;24.50;41.60;;;;;;6274248;27;82018;-67
2022/05/22 09:07:59;;;;;;;13.82;6.28;;;24.50;41.80;;;;;;6284697;27;80377;-68
2022/05/22 09:11:00;;;;;;;12.07;4.93;;;24.50;41.80;;;;;;6273770;27;80707;-68
2022/05/22 09:14:00;;;;;;;9.65;3.88;;;24.60;41.60;;;;;;6285448;27;80342;-68
2022/05/22 09:17:01;;;;;;;6.50;3.88;;;24.60;41.70;;;;;;6283661;27;81315;-67
2022/05/22 09:20:01;;;;;;;7.68;3.55;;;24.60;41.50;;;;;;6282112;27;80794;-68
2022/05/22 09:23:02;;;;;;;6.88;3.50;;;24.60;41.50;;;;;;6279379;27;80212;-68
2022/05/22 09:26:02;;;;;;;8.45;3.33;;;24.60;40.90;;;;;;6284953;27;80901;-69
2022/05/22 09:29:03;;;;;;;5.50;2.33;;;24.60;40.50;;;;;;6279954;27;80731;-67
2022/05/22 09:32:03;;;;;;;10.40;2.83;;;24.50;40.20;;;;;;6274183;27;80914;-67
2022/05/22 09:35:05;;;;;;;4.95;2.00;;;24.50;40.20;;;;;;6277812;27;80608;-68
2022/05/22 09:38:06;;;;;;;7.90;1.77;;;24.60;40.30;;;;;;6284577;27;80240;-68
2022/05/22 09:41:08;;;;;;;5.82;2.00;;;24.50;40.20;;;;;;6277951;27;80237;-67
2022/05/22 09:44:08;;;;;;;5.60;2.13;;;24.50;40.10;;;;;;6261548;27;80558;-66
2022/05/22 09:47:09;;;;;;;3.60;1.90;;;24.50;40.40;;;;;;6263759;27;81389;-70
2022/05/22 09:50:10;;;;;;;4.80;1.80;;;24.50;40.60;;;;;;6269122;27;81682;-69
2022/05/22 09:53:11;;;;;;;3.67;1.75;;;24.50;40.30;;;;;;6264704;27;81025;-67
2022/05/22 09:56:11;;;;;;;4.57;2.15;;;24.60;40.20;;;;;;6284558;27;80484;-71
2022/05/22 09:59:12;;;;;;;5.25;2.17;;;24.50;40.50;;;;;;6284855;27;80220;-69
2022/05/22 10:02:12;;;;;;;4.40;1.83;;;24.60;43.60;;;;;;6282806;27;80753;-70
2022/05/22 10:05:13;;;;;;;6.72;1.83;;;24.60;46.00;;;;;;6283682;27;80733;-67
2022/05/22 10:08:13;;;;;;;3.25;1.33;;;24.60;44.50;;;;;;6273036;27;80361;-68
2022/05/22 10:11:15;;;;;;;2.47;1.60;;;24.40;42.30;;;;;;6268763;27;81910;-65
2022/05/22 10:14:16;;;;;;;4.20;1.58;;;24.40;42.40;;;;;;6262436;27;80859;-66
2022/05/22 10:17:16;;;;;;;3.30;1.88;;;24.50;42.60;;;;;;6258588;27;81880;-68
2022/05/22 10:20:18;;;;;;;3.70;1.63;;;24.50;41.90;;;;;;6259437;27;81772;-64
2022/05/22 10:23:18;;;;;;;5.53;1.40;;;24.50;41.70;;;;;;6260608;27;81424;-66
2022/05/22 10:26:19;;;;;;;15.30;2.03;;;24.50;41.40;;;;;;6260207;27;80263;-67
2022/05/22 10:29:22;;;;;;;6.63;1.70;;;24.50;40.90;;;;;;6265526;27;80464;-67
2022/05/22 10:32:22;;;;;;;2.13;1.65;;;24.50;40.60;;;;;;6270908;27;80339;-67
2022/05/22 10:35:24;;;;;;;1.73;1.55;;;24.50;40.70;;;;;;6282148;27;80450;-67
2022/05/22 10:38:25;;;;;;;2.78;1.88;;;24.60;40.70;;;;;;6281760;27;80798;-69
2022/05/22 10:44:45;;;;;;;3.05;1.23;;;24.50;41.30;;;;;;6271961;27;81308;-68
2022/05/22 10:47:45;;;;;;;6.88;2.35;;;24.50;41.60;;;;;;6267676;27;82648;-66
2022/05/22 10:50:47;;;;;;;4.07;1.50;;;24.60;41.50;;;;;;6262773;27;82494;-65
2022/05/22 10:53:48;;;;;;;16.88;1.48;;;24.60;41.50;;;;;;6266758;27;80901;-63
2022/05/22 10:56:48;;;;;;;3.40;1.75;;;24.60;41.50;;;;;;6266165;27;82025;-67
2022/05/22 10:59:49;;;;;;;5.55;1.63;;;24.60;41.60;;;;;;6270768;27;80385;-67
2022/05/22 11:02:49;;;;;;;7.30;2.08;;;24.60;41.50;;;;;;6279262;27;80603;-67
2022/05/22 11:05:51;;;;;;;4.88;1.42;;;24.60;41.20;;;;;;6266626;27;82010;-67
2022/05/22 11:08:51;;;;;;;3.60;1.50;;;24.60;41.10;;;;;;6265627;27;81384;-70
2022/05/22 11:11:52;;;;;;;7.80;2.80;;;24.60;41.20;;;;;;6278537;27;81933;-66
2022/05/22 11:14:52;;;;;;;14.30;5.22;;;24.70;41.10;;;;;;6279800;27;81609;-70
2022/05/22 11:17:53;;;;;;;38.22;15.82;;;24.60;41.30;;;;;;6283474;27;80751;-78
2022/05/22 11:20:53;;;;;;;45.35;17.83;;;24.60;41.30;;;;;;6279790;27;83400;-70
2022/05/22 11:23:54;;;;;;;48.83;15.95;;;24.60;41.00;;;;;;6279536;27;83314;-70
2022/05/22 11:26:55;;;;;;;43.05;15.25;;;24.60;41.20;;;;;;6276995;27;84457;-66
2022/05/22 11:29:55;;;;;;;36.78;15.15;;;24.60;41.10;;;;;;6276748;27;84197;-67
2022/05/22 11:32:56;;;;;;;32.55;11.70;;;24.60;40.60;;;;;;6279050;27;83042;-68
2022/05/22 11:35:56;;;;;;;40.63;15.45;;;24.60;40.90;;;;;;6278236;27;82965;-63
2022/05/22 11:38:57;;;;;;;38.83;13.77;;;24.60;40.80;;;;;;6279108;27;83909;-65
2022/05/22 11:41:58;;;;;;;29.17;12.73;;;24.70;41.70;;;;;;6269347;27;84440;-66
2022/05/22 11:44:58;;;;;;;31.48;11.25;;;24.70;44.00;;;;;;6280866;27;84118;-75
2022/05/22 11:47:59;;;;;;;26.48;9.30;;;24.70;41.60;;;;;;6282586;27;83310;-68
2022/05/22 11:51:00;;;;;;;23.70;8.95;;;24.70;41.50;;;;;;6286349;27;84236;-62
2022/05/22 11:54:00;;;;;;;20.30;6.97;;;24.70;40.80;;;;;;6277401;27;80364;-65
2022/05/22 11:57:01;;;;;;;19.40;6.63;;;24.70;41.20;;;;;;6286196;27;81744;-63
2022/05/22 12:00:03;;;;;;;15.52;5.53;;;24.70;41.50;;;;;;6286932;27;80878;-65
2022/05/22 12:03:12;;;;;;;15.07;4.95;;;24.80;41.10;;;;;;6274371;27;80562;-67
2022/05/22 12:06:13;;;;;;;10.90;3.75;;;24.80;41.40;;;;;;6285898;27;81433;-67
2022/05/22 12:09:14;;;;;;;6.78;2.88;;;24.80;41.60;;;;;;6286391;27;80374;-66
2022/05/22 12:12:14;;;;;;;5.88;2.72;;;24.80;41.20;;;;;;6286160;27;80815;-66
2022/05/22 12:15:15;;;;;;;8.77;2.33;;;24.80;40.80;;;;;;6285354;27;81592;-65
2022/05/22 12:18:15;;;;;;;8.63;3.28;;;24.70;41.10;;;;;;6285798;27;81601;-67
2022/05/22 12:21:16;;;;;;;5.53;3.05;;;24.70;40.10;;;;;;6285511;27;80362;-66
2022/05/22 12:24:17;;;;;;;6.20;2.63;;;24.70;41.00;;;;;;6283744;27;80423;-70
2022/05/22 12:27:17;;;;;;;6.47;2.33;;;24.70;40.60;;;;;;6285924;27;80217;-66
2022/05/22 12:30:18;;;;;;;8.15;2.22;;;24.70;41.20;;;;;;6285762;27;81261;-68
2022/05/22 12:33:18;;;;;;;3.33;1.80;;;24.70;41.50;;;;;;6280820;27;81450;-67
2022/05/22 12:36:19;;;;;;;3.30;1.60;;;24.80;41.60;;;;;;6267175;27;80476;-69
2022/05/22 12:39:19;;;;;;;2.58;1.40;;;24.70;40.70;;;;;;6280950;27;80624;-69
2022/05/22 12:42:20;;;;;;;6.53;1.92;;;24.70;40.70;;;;;;6279084;27;80493;-69
2022/05/22 12:45:21;;;;;;;9.30;1.77;;;24.70;40.70;;;;;;6282044;27;80825;-70
2022/05/22 12:48:22;;;;;;;3.72;1.40;;;24.70;40.40;;;;;;6260391;27;82168;-68
2022/05/22 12:51:22;;;;;;;7.82;2.08;;;24.70;40.60;;;;;;6282965;27;80280;-67
2022/05/22 12:54:23;;;;;;;7.32;1.27;;;24.70;40.20;;;;;;6283131;27;80532;-67
2022/05/22 12:57:23;;;;;;;6.65;1.33;;;24.60;39.20;;;;;;6285136;27;80673;-70
2022/05/22 13:00:24;;;;;;;2.08;1.35;;;24.60;39.20;;;;;;6284830;27;80542;-71
2022/05/22 13:03:25;;;;;;;16.50;6.55;;;24.60;39.50;;;;;;6285040;27;80815;-72
2022/05/22 13:06:26;;;;;;;16.10;5.25;;;24.60;39.50;;;;;;6284135;27;81446;-67
2022/05/22 13:09:26;;;;;;;20.55;8.50;;;24.60;39.60;;;;;;6285091;27;83084;-70
2022/05/22 13:12:27;;;;;;;17.08;6.05;;;24.50;39.80;;;;;;6285491;27;80495;-70
2022/05/22 13:15:27;;;;;;;14.25;6.45;;;24.60;39.80;;;;;;6285380;27;80563;-68
2022/05/22 13:18:28;;;;;;;16.05;6.88;;;24.60;39.90;;;;;;6285165;27;80976;-69
2022/05/22 13:21:29;;;;;;;18.70;5.68;;;24.50;39.70;;;;;;6284936;27;80491;-72
2022/05/22 13:24:29;;;;;;;11.07;5.18;;;24.60;39.90;;;;;;6284671;27;80440;-68
2022/05/22 13:27:30;;;;;;;14.00;6.22;;;24.60;40.50;;;;;;6284369;27;80641;-69
2022/05/22 13:30:30;;;;;;;13.27;4.32;;;24.60;40.20;;;;;;6284808;27;80622;-67
2022/05/22 13:33:31;;;;;;;9.27;3.75;;;24.50;40.20;;;;;;6277544;27;80364;-69
2022/05/22 13:36:31;;;;;;;11.52;3.10;;;24.60;40.80;;;;;;6261606;27;80440;-70
2022/05/22 13:39:32;;;;;;;6.45;2.72;;;24.60;40.90;;;;;;6262594;27;80877;-70
2022/05/22 13:42:32;;;;;;;7.35;3.03;;;24.60;41.00;;;;;;6284454;27;82499;-72
2022/05/22 13:45:33;;;;;;;5.97;3.00;;;24.60;41.10;;;;;;6273945;27;81668;-70
2022/05/22 13:48:34;;;;;;;3.97;2.00;;;24.60;41.00;;;;;;6285385;27;80568;-68
2022/05/22 13:54:53;;;;;;;9.25;2.08;;;24.60;41.00;;;;;;6284219;27;85918;-68
2022/05/22 13:57:54;;;;;;;4.93;1.95;;;24.60;41.00;;;;;;6283359;27;80404;-68
2022/05/22 14:00:54;;;;;;;4.30;1.77;;;24.60;41.30;;;;;;6284338;27;80301;-68
2022/05/22 14:03:55;;;;;;;2.05;1.42;;;24.60;41.20;;;;;;6274134;27;80827;-69
2022/05/22 14:06:56;;;;;;;6.53;1.88;;;24.60;41.20;;;;;;6268562;27;80165;-68
2022/05/22 14:09:57;;;;;;;3.08;1.67;;;24.60;41.30;;;;;;6278184;27;80442;-69
2022/05/22 14:13:00;;;;;;;4.50;1.70;;;24.60;41.20;;;;;;6271307;27;80512;-68
2022/05/22 14:16:00;;;;;;;2.88;1.60;;;24.60;41.40;;;;;;6273915;27;80573;-68
2022/05/22 14:19:01;;;;;;;6.07;1.80;;;24.60;41.60;;;;;;6272687;27;81190;-65
2022/05/22 14:22:01;;;;;;;3.78;1.60;;;24.70;42.10;;;;;;6272955;27;81754;-68
2022/05/22 14:25:05;;;;;;;5.13;1.70;;;24.70;41.90;;;;;;6265594;27;80401;-67
2022/05/22 14:28:06;;;;;;;2.42;1.30;;;24.70;42.60;;;;;;6259018;27;80311;-66
2022/05/22 14:31:06;;;;;;;3.35;1.55;;;24.70;41.80;;;;;;6268641;27;80830;-66
2022/05/22 14:34:07;;;;;;;2.95;1.35;;;24.70;42.00;;;;;;6266020;27;82364;-66
2022/05/22 14:37:07;;;;;;;1.90;1.48;;;24.70;41.90;;;;;;6265568;27;81203;-66
2022/05/22 14:40:08;;;;;;;5.80;2.05;;;24.70;41.70;;;;;;6267519;27;80680;-66
2022/05/22 14:43:09;;;;;;;4.07;1.52;;;24.70;41.80;;;;;;6267530;27;81020;-66
2022/05/22 14:46:09;;;;;;;3.85;1.50;;;24.70;41.80;;;;;;6263131;27;81416;-67
2022/05/22 14:49:10;;;;;;;3.03;1.20;;;24.70;42.00;;;;;;6261300;27;80255;-66
2022/05/22 14:52:10;;;;;;;6.00;2.53;;;24.60;41.70;;;;;;6272926;27;83294;-64
2022/05/22 14:55:11;;;;;;;2.10;1.27;;;24.60;42.00;;;;;;6279221;27;80477;-71
2022/05/22 14:58:12;;;;;;;1.20;1.10;;;24.60;42.10;;;;;;6271611;27;80636;-66
2022/05/22 15:01:13;;;;;;;2.75;1.17;;;24.60;42.20;;;;;;6279757;27;80340;-66
2022/05/22 15:04:13;;;;;;;2.40;1.30;;;24.60;42.50;;;;;;6282805;27;80346;-65
2022/05/22 15:07:14;;;;;;;123.65;52.83;;;24.70;42.90;;;;;;6277798;27;80414;-66
2022/05/22 15:10:14;;;;;;;330.38;128.40;;;24.60;43.20;;;;;;6270149;27;83177;-66
2022/05/22 15:13:17;;;;;;;259.45;104.20;;;24.60;43.60;;;;;;6276411;27;86029;-69
2022/05/22 15:16:18;;;;;;;204.40;84.00;;;24.60;43.80;;;;;;6278111;27;88598;-67
2022/05/22 15:25:57;;;;;;;110.57;43.15;;;24.60;44.30;;;;;;6272642;27;83060;-66
2022/05/22 15:28:58;;;;;;;100.43;38.67;;;24.60;44.30;;;;;;6283580;27;83512;-68
2022/05/22 15:31:59;;;;;;;106.45;41.55;;;24.60;44.70;;;;;;6273317;27;82743;-68
2022/05/22 15:34:59;;;;;;;96.53;36.20;;;24.60;44.80;;;;;;6283571;27;82785;-67
2022/05/22 15:38:00;;;;;;;98.88;39.33;;;24.60;45.00;;;;;;6270828;27;83532;-69
2022/05/22 15:41:00;;;;;;;144.90;60.83;;;24.60;45.00;;;;;;6280028;27;84601;-70
2022/05/22 15:44:01;;;;;;;199.45;78.78;;;24.60;45.00;;;;;;6281477;27;84523;-69
2022/05/22 15:47:01;;;;;;;262.77;102.28;;;24.60;44.90;;;;;;6271623;27;84281;-69
2022/05/22 15:53:21;;;;;;;238.55;97.40;;;24.60;45.10;;;;;;6279086;27;85486;-68
2022/05/22 15:56:22;;;;;;;239.07;95.90;;;24.70;45.20;;;;;;6282725;27;84183;-68
2022/05/22 15:59:23;;;;;;;214.60;89.13;;;24.70;45.10;;;;;;6282723;27;84131;-66
2022/05/22 16:02:23;;;;;;;186.98;76.65;;;24.70;45.40;;;;;;6279694;27;83324;-71
2022/05/22 16:05:24;;;;;;;174.38;69.93;;;24.70;45.20;;;;;;6282964;27;83351;-64
2022/05/22 16:08:24;;;;;;;169.30;70.30;;;24.70;45.20;;;;;;6281963;27;83700;-69
2022/05/22 16:11:25;;;;;;;148.43;62.30;;;24.70;45.30;;;;;;6282875;27;83175;-68
2022/05/22 16:14:25;;;;;;;143.75;60.85;;;24.70;45.90;;;;;;6282366;27;84160;-70